createdAt,value
2023-01-12T00:01:58.652Z,6.21
2023-01-12T00:04:26.971Z,6.23
2023-01-12T00:06:55.153Z,6.24
2023-01-12T00:09:23.226Z,6.25
2023-01-12T00:11:51.609Z,6.28
2023-01-12T00:14:19.879Z,6.28
2023-01-12T00:16:47.880Z,6.30
2023-01-12T00:19:37.043Z,6.33
2023-01-12T00:22:12.488Z,6.35
2023-01-12T00:24:44.172Z,6.37
2023-01-12T00:27:15.750Z,6.41
2023-01-12T00:29:44.410Z,6.44
2023-01-12T00:32:24.621Z,6.45
2023-01-12T00:35:13.386Z,6.45
2023-01-12T00:37:41.437Z,6.46
2023-01-12T00:40:10.533Z,6.47
2023-01-12T00:43:15.690Z,6.48
2023-01-12T00:45:43.706Z,6.47
2023-01-12T00:48:12.837Z,6.48
2023-01-12T00:50:40.911Z,6.48
2023-01-12T00:53:08.980Z,6.47
2023-01-12T00:55:37.220Z,6.48
2023-01-12T00:58:05.739Z,6.48
2023-01-12T01:00:33.809Z,6.49
2023-01-12T01:03:02.041Z,6.49
2023-01-12T01:05:48.734Z,6.48
2023-01-12T01:08:17.375Z,6.47
2023-01-12T01:10:46.881Z,6.46
2023-01-12T01:13:14.869Z,6.48
2023-01-12T01:15:47.223Z,6.51
2023-01-12T01:18:15.599Z,6.54
2023-01-12T01:20:47.160Z,6.57
2023-01-12T01:23:15.227Z,6.59
2023-01-12T01:25:43.297Z,6.62
2023-01-12T01:28:30.233Z,6.61
2023-01-12T01:31:07.251Z,6.63
2023-01-12T01:33:37.403Z,6.65
2023-01-12T01:36:06.080Z,6.66
2023-01-12T01:38:34.577Z,6.67
2023-01-12T01:41:03.403Z,6.68
2023-01-12T01:44:06.593Z,6.67
2023-01-12T01:46:44.276Z,6.66
2023-01-12T01:49:33.112Z,6.65
2023-01-12T01:52:05.360Z,6.65
2023-01-12T01:54:42.976Z,6.65
2023-01-12T01:57:13.304Z,6.66
2023-01-12T01:59:47.413Z,6.68
2023-01-12T02:02:35.431Z,6.68
2023-01-12T02:05:03.938Z,6.67
2023-01-12T02:07:33.856Z,6.68
2023-01-12T02:10:02.640Z,6.69
2023-01-12T02:12:49.550Z,6.71
2023-01-12T02:15:37.296Z,6.72
2023-01-12T02:18:20.815Z,6.73
2023-01-12T02:20:57.755Z,6.73
2023-01-12T02:23:49.521Z,6.74
2023-01-12T02:26:37.148Z,6.74
2023-01-12T02:29:28.654Z,6.74
2023-01-12T02:32:19.768Z,6.74
2023-01-12T02:35:10.884Z,6.72
2023-01-12T02:38:10.506Z,6.72
2023-01-12T02:40:59.542Z,6.71
2023-01-12T02:43:30.368Z,6.69
2023-01-12T02:46:13.274Z,6.66
2023-01-12T02:48:59.927Z,6.66
2023-01-12T02:51:34.414Z,6.65
2023-01-12T02:54:11.107Z,6.65
2023-01-12T02:56:46.273Z,6.68
2023-01-12T02:59:21.912Z,6.70
2023-01-12T03:01:59.707Z,6.68
2023-01-12T03:04:30.297Z,6.67
2023-01-12T03:06:58.477Z,6.63
2023-01-12T03:09:45.569Z,6.60
2023-01-12T03:12:20.424Z,6.59
2023-01-12T03:14:51.600Z,6.58
2023-01-12T03:17:32.060Z,6.58
2023-01-12T03:20:24.606Z,6.59
2023-01-12T03:22:58.709Z,6.60
2023-01-12T03:25:31.509Z,6.62
2023-01-12T03:28:03.824Z,6.62
2023-01-12T03:30:37.795Z,6.61
2023-01-12T03:33:07.629Z,6.62
2023-01-12T03:35:41.105Z,6.65
2023-01-12T03:38:24.533Z,6.65
2023-01-12T03:41:08.921Z,6.66
2023-01-12T03:44:05.111Z,6.68
2023-01-12T03:46:54.630Z,6.72
2023-01-12T03:49:33.721Z,6.74
2023-01-12T03:52:22.575Z,6.76
2023-01-12T03:54:54.059Z,6.78
2023-01-12T03:57:22.812Z,6.79
2023-01-12T03:59:50.997Z,6.80
2023-01-12T04:02:37.617Z,6.82
2023-01-12T04:05:08.539Z,6.82
2023-01-12T04:07:36.699Z,6.82
2023-01-12T04:10:05.569Z,6.82
2023-01-12T04:12:33.667Z,6.80
2023-01-12T04:15:20.603Z,6.75
2023-01-12T04:17:48.653Z,6.71
2023-01-12T04:20:16.731Z,6.72
2023-01-12T04:22:49.604Z,6.73
2023-01-12T04:25:36.483Z,6.72
2023-01-12T04:28:04.999Z,6.70
2023-01-12T04:30:51.887Z,6.67
2023-01-12T04:33:20.099Z,6.65
2023-01-12T04:35:48.121Z,6.64
2023-01-12T04:38:18.192Z,6.64
2023-01-12T04:40:46.446Z,6.62
2023-01-12T04:43:14.418Z,6.64
2023-01-12T04:45:43.802Z,6.64
2023-01-12T04:48:30.732Z,6.64
2023-01-12T04:51:00.912Z,6.62
2023-01-12T04:53:48.401Z,6.58
2023-01-12T04:56:16.555Z,6.56
2023-01-12T04:58:44.935Z,6.55
2023-01-12T05:01:16.445Z,6.55
2023-01-12T05:03:45.631Z,6.57
2023-01-12T05:06:13.947Z,6.58
2023-01-12T05:09:01.231Z,6.59
2023-01-12T05:11:29.797Z,6.59
2023-01-12T05:13:58.069Z,6.56
2023-01-12T05:16:26.243Z,6.55
2023-01-12T05:19:13.430Z,6.53
2023-01-12T05:21:41.437Z,6.52
2023-01-12T05:24:09.572Z,6.50
2023-01-12T05:26:37.770Z,6.49
2023-01-12T05:29:05.921Z,6.49
2023-01-12T05:31:35.123Z,6.49
2023-01-12T05:34:03.493Z,6.50
2023-01-12T05:36:31.804Z,6.53
2023-01-12T05:39:19.720Z,6.53
2023-01-12T05:42:10.648Z,6.53
2023-01-12T05:44:38.732Z,6.53
2023-01-12T05:47:06.859Z,6.52
2023-01-12T05:49:34.844Z,6.51
2023-01-12T05:52:03.202Z,6.50
2023-01-12T05:54:31.891Z,6.47
2023-01-12T05:57:00.064Z,6.45
2023-01-12T05:59:28.240Z,6.46
2023-01-12T06:01:56.237Z,6.46
2023-01-12T06:04:25.438Z,6.48
2023-01-12T06:07:16.520Z,6.49
2023-01-12T06:09:44.689Z,6.51
2023-01-12T06:12:41.961Z,6.52
2023-01-12T06:15:10.428Z,6.52
2023-01-12T06:17:38.495Z,6.51
2023-01-12T06:20:07.710Z,6.52
2023-01-12T06:22:36.095Z,6.54
2023-01-12T06:25:04.669Z,6.54
2023-01-12T06:27:39.571Z,6.55
2023-01-12T06:30:12.576Z,6.57
2023-01-12T06:32:41.885Z,6.57
2023-01-12T06:35:18.663Z,6.57
2023-01-12T06:37:48.061Z,6.57
2023-01-12T06:40:16.630Z,6.56
2023-01-12T06:42:44.707Z,6.57
2023-01-12T06:45:13.080Z,6.57
2023-01-12T06:47:49.561Z,6.54
2023-01-12T06:50:17.984Z,6.53
2023-01-12T06:52:46.109Z,6.52
2023-01-12T06:55:16.417Z,6.51
2023-01-12T06:58:04.771Z,6.50
2023-01-12T07:00:33.070Z,6.50
2023-01-12T07:03:20.589Z,6.51
2023-01-12T07:05:48.656Z,6.52
2023-01-12T07:08:19.290Z,6.52
2023-01-12T07:10:47.660Z,6.53
2023-01-12T07:13:15.647Z,6.53
2023-01-12T07:15:44.157Z,6.54
2023-01-12T07:18:12.590Z,6.55
2023-01-12T07:20:40.594Z,6.56
2023-01-12T07:23:27.268Z,6.58
2023-01-12T07:25:57.797Z,6.59
2023-01-12T07:28:25.887Z,6.60
2023-01-12T07:30:59.411Z,6.62
2023-01-12T07:33:27.641Z,6.63
2023-01-12T07:36:00.024Z,6.66
2023-01-12T07:38:33.324Z,6.69
2023-01-12T07:41:02.869Z,6.70
2023-01-12T07:43:33.781Z,6.70
2023-01-12T07:46:02.135Z,6.70
2023-01-12T07:48:49.040Z,6.70
2023-01-12T07:51:17.835Z,6.72
2023-01-12T07:53:48.253Z,6.73
2023-01-12T07:56:16.533Z,6.74
2023-01-12T07:58:47.978Z,6.76
2023-01-12T08:01:16.741Z,6.78
2023-01-12T08:03:45.569Z,6.81
2023-01-12T08:06:13.738Z,6.84
2023-01-12T08:09:00.998Z,6.86
2023-01-12T08:11:47.398Z,6.87
2023-01-12T08:14:33.752Z,6.88
2023-01-12T08:17:02.595Z,6.90
2023-01-12T08:19:55.785Z,6.93
2023-01-12T08:22:30.349Z,6.96
2023-01-12T08:25:09.209Z,6.99
2023-01-12T08:27:41.111Z,7.02
2023-01-12T08:30:10.186Z,7.04
2023-01-12T08:32:39.066Z,7.07
2023-01-12T08:35:08.293Z,7.08
2023-01-12T08:37:39.745Z,7.08
2023-01-12T08:40:08.983Z,7.08
2023-01-12T08:42:37.101Z,7.09
2023-01-12T08:45:09.396Z,7.10
2023-01-12T08:47:38.123Z,7.11
2023-01-12T08:50:07.568Z,7.11
2023-01-12T08:52:36.056Z,7.12
2023-01-12T08:55:04.605Z,7.13
2023-01-12T08:57:32.906Z,7.12
2023-01-12T09:00:01.094Z,7.12
2023-01-12T09:02:29.915Z,7.11
2023-01-12T09:04:58.156Z,7.12
2023-01-12T09:07:26.432Z,7.15
2023-01-12T09:09:54.497Z,7.19
2023-01-12T09:12:24.464Z,7.23
2023-01-12T09:14:54.184Z,7.25
2023-01-12T09:17:23.226Z,7.27
2023-01-12T09:19:51.625Z,7.27
2023-01-12T09:22:19.771Z,7.28
2023-01-12T09:24:48.055Z,7.29
2023-01-12T09:27:16.426Z,7.29
2023-01-12T09:29:44.496Z,7.29
2023-01-12T09:32:12.679Z,7.29
2023-01-12T09:34:41.019Z,7.30
2023-01-12T09:37:09.227Z,7.33
2023-01-12T09:39:56.266Z,7.35
2023-01-12T09:43:09.170Z,7.39
2023-01-12T09:45:56.113Z,7.43
2023-01-12T09:48:25.514Z,7.45
2023-01-12T09:51:10.031Z,7.45
2023-01-12T09:53:40.561Z,7.48
2023-01-12T09:56:08.641Z,7.51
2023-01-12T09:59:08.345Z,7.53
2023-01-12T10:01:59.475Z,7.57
2023-01-12T10:04:32.161Z,7.61
2023-01-12T10:07:00.360Z,7.63
2023-01-12T10:09:28.999Z,7.66
2023-01-12T10:12:29.532Z,7.74
2023-01-12T10:14:58.106Z,7.81
2023-01-12T10:17:41.992Z,7.87
2023-01-12T10:20:34.102Z,7.91
2023-01-12T10:23:12.502Z,7.90
2023-01-12T10:25:45.964Z,7.90
2023-01-12T10:28:25.896Z,7.91
2023-01-12T10:30:56.424Z,7.94
2023-01-12T10:33:27.644Z,7.94
2023-01-12T10:36:00.815Z,7.93
2023-01-12T10:38:36.567Z,7.92
2023-01-12T10:41:10.578Z,7.92
2023-01-12T10:43:42.561Z,7.94
2023-01-12T10:46:19.651Z,7.95
2023-01-12T10:48:49.967Z,7.90
2023-01-12T10:51:30.513Z,7.86
2023-01-12T10:54:23.278Z,7.84
2023-01-12T10:56:59.177Z,7.80
2023-01-12T10:59:54.760Z,7.76
2023-01-12T11:02:26.435Z,7.74
2023-01-12T11:04:57.934Z,7.73
2023-01-12T11:07:50.377Z,7.71
2023-01-12T11:10:21.247Z,7.71
2023-01-12T11:12:59.106Z,7.71
2023-01-12T11:15:29.156Z,7.71
2023-01-12T11:18:03.162Z,7.71
2023-01-12T11:20:34.522Z,7.72
2023-01-12T11:23:05.270Z,7.69
2023-01-12T11:25:40.234Z,7.66
2023-01-12T11:28:39.613Z,7.66
2023-01-12T11:31:19.853Z,7.68
2023-01-12T11:33:55.469Z,7.67
2023-01-12T11:36:29.403Z,7.68
2023-01-12T11:39:06.684Z,7.68
2023-01-12T11:42:16.141Z,7.67
2023-01-12T11:45:06.133Z,7.65
2023-01-12T11:47:46.336Z,7.66
2023-01-12T11:50:21.853Z,7.70
2023-01-12T11:52:50.579Z,7.72
2023-01-12T11:55:42.414Z,7.73
2023-01-12T11:58:33.823Z,7.75
2023-01-12T12:01:26.803Z,7.78
2023-01-12T12:04:08.675Z,7.79
2023-01-12T12:07:02.177Z,7.79
2023-01-12T12:09:58.472Z,7.79
2023-01-12T12:12:41.908Z,7.80
2023-01-12T12:15:25.438Z,7.84
2023-01-12T12:18:14.479Z,7.89
2023-01-12T12:20:43.087Z,7.97
2023-01-12T12:23:36.839Z,8.05
2023-01-12T12:26:38.477Z,8.15
2023-01-12T12:29:21.335Z,8.23
2023-01-12T12:32:15.953Z,8.29
2023-01-12T12:34:56.410Z,8.34
2023-01-12T12:37:35.401Z,8.38
2023-01-12T12:40:30.711Z,8.52
2023-01-12T12:43:37.916Z,8.69
2023-01-12T12:46:21.277Z,8.82
2023-01-12T12:49:12.982Z,8.98
2023-01-12T12:51:41.849Z,9.15
2023-01-12T12:54:18.324Z,9.18
2023-01-12T12:56:47.850Z,9.15
2023-01-12T12:59:34.543Z,9.12
2023-01-12T13:02:53.259Z,9.08
2023-01-12T13:05:47.312Z,9.00
2023-01-12T13:08:27.403Z,8.90
2023-01-12T13:10:58.959Z,8.82
2023-01-12T13:13:29.232Z,8.79
2023-01-12T13:16:24.145Z,8.76
2023-01-12T13:18:52.385Z,8.70
2023-01-12T13:21:26.820Z,8.63
2023-01-12T13:24:23.663Z,8.55
2023-01-12T13:26:53.981Z,8.49
2023-01-12T13:29:28.175Z,8.42
2023-01-12T13:32:34.147Z,8.35
2023-01-12T13:35:03.517Z,8.27
2023-01-12T13:37:49.071Z,8.22
2023-01-12T13:40:18.949Z,8.17
2023-01-12T13:43:08.174Z,8.14
2023-01-12T13:45:37.307Z,8.13
2023-01-12T13:48:07.638Z,8.12
2023-01-12T13:50:37.138Z,8.09
2023-01-12T13:53:28.837Z,8.07
2023-01-12T13:56:00.002Z,8.04
2023-01-12T13:58:41.310Z,8.02
2023-01-12T14:01:24.175Z,8.01
2023-01-12T14:04:05.049Z,8.03
2023-01-12T14:07:03.659Z,8.04
2023-01-12T14:09:50.628Z,8.05
2023-01-12T14:12:37.896Z,8.04
2023-01-12T14:15:42.025Z,8.03
2023-01-12T14:18:15.084Z,8.02
2023-01-12T14:20:52.089Z,8.02
2023-01-12T14:23:21.763Z,8.02
2023-01-12T14:26:14.706Z,8.03
2023-01-12T14:29:01.269Z,8.02
2023-01-12T14:31:53.321Z,8.00
2023-01-12T14:34:35.397Z,8.00
2023-01-12T14:37:08.067Z,8.00
2023-01-12T14:39:56.103Z,8.01
2023-01-12T14:42:45.368Z,8.02
2023-01-12T14:45:50.802Z,8.00
2023-01-12T14:48:30.850Z,7.99
2023-01-12T14:51:14.386Z,7.99
2023-01-12T14:53:49.091Z,8.01
2023-01-12T14:56:35.328Z,8.01
2023-01-12T14:59:16.921Z,7.99
2023-01-12T15:01:45.022Z,7.99
2023-01-12T15:04:21.014Z,7.98
2023-01-12T15:07:01.413Z,7.99
2023-01-12T15:09:33.612Z,8.00
2023-01-12T15:12:41.989Z,8.02
2023-01-12T15:15:49.890Z,8.04
2023-01-12T15:18:38.139Z,8.06
2023-01-12T15:21:25.012Z,8.06
2023-01-12T15:24:11.865Z,8.07
2023-01-12T15:26:40.648Z,8.10
2023-01-12T15:29:09.029Z,8.13
2023-01-12T15:31:39.009Z,8.15
2023-01-12T15:34:10.792Z,8.17
2023-01-12T15:36:38.875Z,8.18
2023-01-12T15:39:06.940Z,8.20
2023-01-12T15:41:54.982Z,8.22
2023-01-12T15:44:23.935Z,8.26
2023-01-12T15:46:52.938Z,8.29
2023-01-12T15:49:21.666Z,8.30
2023-01-12T15:51:51.060Z,8.32
2023-01-12T15:54:20.692Z,8.32
2023-01-12T15:56:48.836Z,8.33
2023-01-12T15:59:16.854Z,8.35
2023-01-12T16:01:48.133Z,8.37
2023-01-12T16:04:42.538Z,8.38
2023-01-12T16:07:11.861Z,8.39
2023-01-12T16:09:41.363Z,8.40
2023-01-12T16:12:10.510Z,8.41
2023-01-12T16:14:39.253Z,8.42
2023-01-12T16:17:07.400Z,8.44
2023-01-12T16:19:41.519Z,8.46
2023-01-12T16:22:17.975Z,8.46
2023-01-12T16:24:46.473Z,8.45
2023-01-12T16:27:15.267Z,8.42
2023-01-12T16:29:43.729Z,8.39
2023-01-12T16:32:12.627Z,8.37
2023-01-12T16:34:41.323Z,8.36
2023-01-12T16:37:19.121Z,8.33
2023-01-12T16:40:06.661Z,8.30
2023-01-12T16:42:34.648Z,8.27
2023-01-12T16:45:03.538Z,8.24
2023-01-12T16:47:31.977Z,8.22
2023-01-12T16:50:00.169Z,8.22
2023-01-12T16:52:28.431Z,8.21
2023-01-12T16:54:56.422Z,8.19
2023-01-12T16:57:24.572Z,8.19
2023-01-12T16:59:52.635Z,8.18
2023-01-12T17:02:21.397Z,8.18
2023-01-12T17:04:52.550Z,8.18
2023-01-12T17:07:21.152Z,8.19
2023-01-12T17:10:08.853Z,8.20
2023-01-12T17:12:37.158Z,8.21
2023-01-12T17:15:06.068Z,8.22
2023-01-12T17:17:35.858Z,8.23
2023-01-12T17:20:05.373Z,8.25
2023-01-12T17:22:34.437Z,8.28
2023-01-12T17:25:03.160Z,8.29
2023-01-12T17:27:31.320Z,8.30
2023-01-12T17:29:59.592Z,8.31
2023-01-12T17:32:27.837Z,8.32
2023-01-12T17:34:56.048Z,8.34
2023-01-12T17:37:43.190Z,8.35
2023-01-12T17:40:12.067Z,8.36
2023-01-12T17:43:09.814Z,8.36
2023-01-12T17:45:45.330Z,8.35
2023-01-12T17:48:19.690Z,8.36
2023-01-12T17:50:48.476Z,8.37
2023-01-12T17:53:19.159Z,8.40
2023-01-12T17:55:49.204Z,8.41
2023-01-12T17:58:37.274Z,8.41
2023-01-12T18:01:14.576Z,8.42
2023-01-12T18:03:43.159Z,8.43
2023-01-12T18:06:15.049Z,8.42
2023-01-12T18:08:48.490Z,8.42
2023-01-12T18:11:19.536Z,8.41
2023-01-12T18:13:48.178Z,8.40
2023-01-12T18:16:17.013Z,8.41
2023-01-12T18:18:45.486Z,8.41
2023-01-12T18:21:16.198Z,8.42
2023-01-12T18:23:44.859Z,8.43
2023-01-12T18:26:16.345Z,8.43
2023-01-12T18:28:45.250Z,8.42
2023-01-12T18:31:16.267Z,8.41
2023-01-12T18:33:46.312Z,8.41
2023-01-12T18:36:17.953Z,8.42
2023-01-12T18:38:46.244Z,8.43
2023-01-12T18:41:54.468Z,8.44
2023-01-12T18:44:24.337Z,8.43
2023-01-12T18:47:16.901Z,8.41
2023-01-12T18:49:49.420Z,8.40
2023-01-12T18:52:55.137Z,8.40
2023-01-12T18:55:41.989Z,8.40
2023-01-12T18:58:10.222Z,8.41
2023-01-12T19:00:38.622Z,8.43
2023-01-12T19:03:26.230Z,8.43
2023-01-12T19:06:22.209Z,8.44
2023-01-12T19:09:10.822Z,8.45
2023-01-12T19:11:59.095Z,8.46
2023-01-12T19:15:05.736Z,8.46
2023-01-12T19:17:37.222Z,8.45
2023-01-12T19:20:08.970Z,8.43
2023-01-12T19:22:57.484Z,8.42
2023-01-12T19:25:46.056Z,8.42
2023-01-12T19:28:32.790Z,8.44
2023-01-12T19:31:20.727Z,8.45
2023-01-12T19:33:49.082Z,8.46
2023-01-12T19:36:17.343Z,8.47
2023-01-12T19:38:50.717Z,8.48
2023-01-12T19:41:39.394Z,8.47
2023-01-12T19:44:08.280Z,8.47
2023-01-12T19:46:36.465Z,8.47
2023-01-12T19:49:23.803Z,8.46
2023-01-12T19:51:51.948Z,8.45
2023-01-12T19:54:20.024Z,8.46
2023-01-12T19:56:49.027Z,8.47
2023-01-12T19:59:17.201Z,8.47
2023-01-12T20:01:45.359Z,8.47
2023-01-12T20:04:14.050Z,8.48
2023-01-12T20:21:11.632Z,8.50
2023-01-12T20:23:39.783Z,8.47
2023-01-12T20:26:09.160Z,8.45
2023-01-12T20:28:37.662Z,8.43
2023-01-12T20:31:10.631Z,8.42
2023-01-12T20:33:39.374Z,8.42
2023-01-12T20:36:17.321Z,8.41
2023-01-12T20:38:47.354Z,8.41
2023-01-12T20:41:15.512Z,8.41
2023-01-12T20:43:43.930Z,8.42
2023-01-12T20:46:14.141Z,8.40
2023-01-12T20:48:44.649Z,8.39
2023-01-12T20:51:18.428Z,8.40
2023-01-12T20:53:46.667Z,8.40
2023-01-12T20:56:14.803Z,8.40
2023-01-12T20:58:43.322Z,8.40
2023-01-12T21:01:13.824Z,8.41
2023-01-12T21:03:43.366Z,8.42
2023-01-12T21:06:14.429Z,8.42
2023-01-12T21:08:46.416Z,8.43
2023-01-12T21:11:17.245Z,8.45
2023-01-12T21:13:49.537Z,8.47
2023-01-12T21:16:19.502Z,8.49
2023-01-12T21:18:48.338Z,8.50
2023-01-12T21:21:16.923Z,8.52
2023-01-12T21:23:45.294Z,8.53
2023-01-12T21:26:13.760Z,8.55
2023-01-12T21:29:01.995Z,8.56
2023-01-12T21:31:48.656Z,8.58
2023-01-12T21:34:43.733Z,8.61
2023-01-12T21:37:12.516Z,8.63
2023-01-12T21:39:40.691Z,8.63
2023-01-12T21:42:27.211Z,8.64
2023-01-12T21:44:55.366Z,8.64
2023-01-12T21:47:23.685Z,8.66
2023-01-12T21:49:52.025Z,8.69
2023-01-12T21:52:20.302Z,8.70
2023-01-12T21:54:48.475Z,8.70
2023-01-12T21:57:16.646Z,8.70
2023-01-12T21:59:44.819Z,8.70
2023-01-12T22:02:13.250Z,8.69
2023-01-12T22:04:41.467Z,8.68
2023-01-12T22:07:09.546Z,8.70
2023-01-12T22:09:37.821Z,8.71
2023-01-12T22:12:06.507Z,8.72
2023-01-12T22:14:34.618Z,8.71
2023-01-12T22:17:02.628Z,8.70
2023-01-12T22:19:31.536Z,8.70
2023-01-12T22:22:18.355Z,8.69
2023-01-12T22:24:46.735Z,8.70
2023-01-12T22:27:14.963Z,8.70
2023-01-12T22:30:02.838Z,8.70
2023-01-12T22:32:31.714Z,8.69
2023-01-12T22:35:00.131Z,8.69
2023-01-12T22:37:29.309Z,8.69
2023-01-12T22:39:57.477Z,8.71
2023-01-12T22:42:45.672Z,8.72
2023-01-12T22:45:14.168Z,8.73
2023-01-12T22:47:47.983Z,8.74
2023-01-12T22:50:16.822Z,8.74
2023-01-12T22:53:03.617Z,8.75
2023-01-12T22:55:32.006Z,8.77
2023-01-12T22:58:00.369Z,8.77
2023-01-12T23:00:28.415Z,8.79
2023-01-12T23:03:03.098Z,8.81
2023-01-12T23:05:35.977Z,8.81
2023-01-12T23:08:11.158Z,8.79
2023-01-12T23:10:39.460Z,8.80
2023-01-12T23:13:25.756Z,8.80
2023-01-12T23:15:58.294Z,8.81
2023-01-12T23:18:29.343Z,8.83
2023-01-12T23:21:09.998Z,8.84
2023-01-12T23:23:39.087Z,8.83
2023-01-12T23:26:31.373Z,8.81
2023-01-12T23:29:03.114Z,8.80
2023-01-12T23:31:33.739Z,8.79
2023-01-12T23:34:02.245Z,8.79
2023-01-12T23:36:31.173Z,8.80
2023-01-12T23:39:02.069Z,8.82
2023-01-12T23:41:33.317Z,8.83
2023-01-12T23:44:04.522Z,8.83
2023-01-12T23:46:43.111Z,8.82
2023-01-12T23:49:11.560Z,8.83
2023-01-12T23:51:40.666Z,8.84
2023-01-12T23:54:18.792Z,8.84
2023-01-12T23:56:52.379Z,8.85
2023-01-12T23:59:21.045Z,8.83
